createdAt,value
2023-01-19T00:02:30.352Z,98863.19
2023-01-19T00:07:33.418Z,98880.90
2023-01-19T00:12:36.434Z,98897.31
2023-01-19T00:17:41.164Z,98908.08
2023-01-19T00:22:43.995Z,98922.55
2023-01-19T00:27:49.503Z,98944.77
2023-01-19T00:32:52.249Z,98952.87
2023-01-19T00:37:56.452Z,98961.70
2023-01-19T00:43:00.335Z,98972.89
2023-01-19T00:48:03.895Z,98979.95
2023-01-19T00:53:06.847Z,98992.93
2023-01-19T00:58:09.769Z,98998.43
2023-01-19T01:03:12.647Z,98998.88
2023-01-19T01:08:15.506Z,99005.73
2023-01-19T01:13:20.766Z,99012.52
2023-01-19T01:18:26.573Z,99015.50
2023-01-19T01:23:29.585Z,99031.95
2023-01-19T01:28:32.391Z,99039.73
2023-01-19T01:33:41.270Z,99050.29
2023-01-19T01:38:45.059Z,99058.10
2023-01-19T01:43:58.644Z,99069.98
2023-01-19T01:49:08.547Z,99075.13
2023-01-19T01:54:19.790Z,99081.30
2023-01-19T01:59:26.568Z,99087.97
2023-01-19T02:04:30.601Z,99098.82
2023-01-19T02:09:55.422Z,99111.32
2023-01-19T02:14:58.093Z,99115.16
2023-01-19T02:20:00.825Z,99106.09
2023-01-19T02:25:05.341Z,99113.54
2023-01-19T02:30:10.030Z,99122.08
2023-01-19T02:35:13.219Z,99135.26
2023-01-19T02:40:20.242Z,99134.41
2023-01-19T02:45:23.401Z,99132.68
2023-01-19T02:50:46.106Z,99122.17
2023-01-19T02:55:57.281Z,99114.62
2023-01-19T03:01:44.996Z,99124.11
2023-01-19T03:07:06.693Z,99119.43
2023-01-19T03:12:14.835Z,99122.27
2023-01-19T03:17:19.156Z,99125.70
2023-01-19T03:22:27.284Z,99120.73
2023-01-19T03:27:34.274Z,99114.05
2023-01-19T03:32:42.580Z,99107.95
2023-01-19T03:37:48.165Z,99123.41
2023-01-19T03:42:51.500Z,99107.81
2023-01-19T03:47:55.069Z,99112.48
2023-01-19T03:53:02.250Z,99109.91
2023-01-19T03:58:05.513Z,99101.66
2023-01-19T04:03:14.053Z,99095.52
2023-01-19T04:08:16.866Z,99091.34
2023-01-19T04:13:19.564Z,99100.54
2023-01-19T04:18:22.239Z,99108.92
2023-01-19T04:23:25.466Z,99110.60
2023-01-19T04:28:28.220Z,99116.86
2023-01-19T04:33:31.033Z,99124.16
2023-01-19T04:38:34.019Z,99141.82
2023-01-19T04:43:37.181Z,99150.54
2023-01-19T04:48:41.406Z,99149.56
2023-01-19T04:53:44.941Z,99157.71
2023-01-19T04:58:47.614Z,99165.84
2023-01-19T05:03:50.323Z,99173.75
2023-01-19T05:08:53.032Z,99165.55
2023-01-19T05:13:55.736Z,99168.38
2023-01-19T05:18:58.531Z,99169.61
2023-01-19T05:24:01.244Z,99175.06
2023-01-19T05:29:04.032Z,99182.77
2023-01-19T05:34:06.834Z,99185.42
2023-01-19T05:39:09.517Z,99189.41
2023-01-19T05:44:13.041Z,99202.09
2023-01-19T05:49:15.832Z,99209.33
2023-01-19T05:54:18.867Z,99224.13
2023-01-19T05:59:24.394Z,99232.48
2023-01-19T06:04:27.223Z,99238.27
2023-01-19T06:09:29.906Z,99255.19
2023-01-19T06:14:32.631Z,99265.21
2023-01-19T06:19:35.477Z,99275.07
2023-01-19T06:24:38.191Z,99282.39
2023-01-19T06:29:41.126Z,99291.27
2023-01-19T06:34:43.916Z,99297.72
2023-01-19T06:39:46.658Z,99310.11
2023-01-19T06:44:49.438Z,99315.33
2023-01-19T06:49:52.130Z,99311.97
2023-01-19T06:54:54.864Z,99316.48
2023-01-19T07:00:01.025Z,99317.89
2023-01-19T07:05:06.763Z,99325.10
2023-01-19T07:10:11.907Z,99342.20
2023-01-19T07:15:16.987Z,99355.02
2023-01-19T07:20:19.828Z,99359.86
2023-01-19T07:25:22.888Z,99371.34
2023-01-19T07:30:27.023Z,99397.27
2023-01-19T07:35:29.849Z,99407.19
2023-01-19T07:40:33.880Z,99404.93
2023-01-19T07:45:36.773Z,99403.51
2023-01-19T07:50:39.545Z,99409.92
2023-01-19T07:55:42.593Z,99412.59
2023-01-19T08:00:45.577Z,99403.30
2023-01-19T08:05:54.932Z,99412.34
2023-01-19T08:10:58.137Z,99417.84
2023-01-19T08:16:01.067Z,99414.27
2023-01-19T08:21:04.675Z,99410.60
2023-01-19T08:26:27.472Z,99408.54
2023-01-19T08:31:30.719Z,99412.13
2023-01-19T08:36:34.030Z,99410.86
2023-01-19T08:41:37.003Z,99418.55
2023-01-19T08:46:40.571Z,99423.04
2023-01-19T08:51:46.301Z,99439.77
2023-01-19T08:56:49.121Z,99442.30
2023-01-19T09:01:52.059Z,99434.66
2023-01-19T09:06:54.972Z,99445.44
2023-01-19T09:11:58.137Z,99445.30
2023-01-19T09:17:01.042Z,99456.45
2023-01-19T09:22:03.734Z,99452.92
2023-01-19T09:27:06.535Z,99449.85
2023-01-19T09:32:11.364Z,99448.89
2023-01-19T09:37:16.423Z,99451.08
2023-01-19T09:42:38.096Z,99452.94
2023-01-19T09:47:42.111Z,99448.33
2023-01-19T09:52:54.933Z,99451.33
2023-01-19T09:57:57.904Z,99451.09
2023-01-19T10:03:16.329Z,99450.80
2023-01-19T10:08:39.048Z,99448.85
2023-01-19T10:13:48.852Z,99449.67
2023-01-19T10:18:56.358Z,99456.79
2023-01-19T10:24:06.129Z,99462.73
2023-01-19T10:29:37.594Z,99462.98
2023-01-19T10:34:41.718Z,99462.73
2023-01-19T10:39:47.363Z,99459.41
2023-01-19T10:44:50.536Z,99457.73
2023-01-19T10:49:53.510Z,99465.45
2023-01-19T10:54:57.556Z,99462.44
2023-01-19T11:00:00.324Z,99451.80
2023-01-19T11:05:23.853Z,99448.15
2023-01-19T11:10:30.464Z,99431.21
2023-01-19T11:15:44.069Z,99435.89
2023-01-19T11:20:55.182Z,99433.87
2023-01-19T11:26:01.584Z,99434.81
2023-01-19T11:31:28.114Z,99434.34
2023-01-19T11:36:32.337Z,99438.89
2023-01-19T11:41:38.721Z,99439.31
2023-01-19T11:46:48.509Z,99434.56
2023-01-19T11:52:02.307Z,99434.89
2023-01-19T11:57:12.802Z,99431.48
2023-01-19T12:02:29.298Z,99431.53
2023-01-19T12:07:35.658Z,99427.16
2023-01-19T12:12:40.534Z,99429.59
2023-01-19T12:17:50.347Z,99432.38
2023-01-19T12:23:11.495Z,99423.85
2023-01-19T12:28:16.764Z,99419.73
2023-01-19T12:33:33.441Z,99421.85
2023-01-19T12:38:50.298Z,99423.82
2023-01-19T12:44:11.988Z,99421.70
2023-01-19T12:49:26.491Z,99416.64
2023-01-19T12:54:32.679Z,99411.60
2023-01-19T12:59:37.592Z,99421.90
2023-01-19T13:04:40.406Z,99418.19
2023-01-19T13:09:43.335Z,99412.77
2023-01-19T13:14:46.396Z,99416.59
2023-01-19T13:20:01.641Z,99413.94
2023-01-19T13:25:08.939Z,99416.98
2023-01-19T13:30:17.777Z,99421.39
2023-01-19T13:35:21.279Z,99414.98
2023-01-19T13:40:38.270Z,99416.18
2023-01-19T13:45:41.904Z,99420.22
2023-01-19T13:51:01.217Z,99419.64
2023-01-19T13:56:24.376Z,99422.08
2023-01-19T14:01:33.576Z,99425.08
2023-01-19T14:06:45.687Z,99422.66
2023-01-19T14:12:12.335Z,99437.56
2023-01-19T14:17:26.643Z,99441.70
2023-01-19T14:22:44.616Z,99446.14
2023-01-19T14:27:49.081Z,99440.18
2023-01-19T14:32:52.475Z,99451.27
2023-01-19T14:37:55.167Z,99458.54
2023-01-19T14:43:00.757Z,99459.45
2023-01-19T14:48:07.884Z,99467.38
2023-01-19T14:53:21.190Z,99470.74
2023-01-19T14:58:26.140Z,99473.82
2023-01-19T15:03:48.523Z,99478.55
2023-01-19T15:08:53.667Z,99478.48
2023-01-19T15:13:56.609Z,99483.24
2023-01-19T15:18:59.282Z,99482.16
2023-01-19T15:24:01.977Z,99479.80
2023-01-19T15:29:18.063Z,99473.64
2023-01-19T15:34:20.766Z,99478.60
2023-01-19T15:39:23.916Z,99481.02
2023-01-19T15:44:26.595Z,99481.48
2023-01-19T15:49:30.956Z,99488.69
2023-01-19T15:54:33.616Z,99493.95
2023-01-19T15:59:36.581Z,99502.30
2023-01-19T16:04:39.211Z,99511.49
2023-01-19T16:09:41.959Z,99503.73
2023-01-19T16:14:44.722Z,99510.20
2023-01-19T16:19:48.168Z,99511.73
2023-01-19T16:24:53.233Z,99521.71
2023-01-19T16:29:57.253Z,99516.20
2023-01-19T16:35:00.277Z,99519.64
2023-01-19T16:40:04.358Z,99520.61
2023-01-19T16:45:07.675Z,99525.70
2023-01-19T16:50:11.956Z,99522.04
2023-01-19T16:55:14.947Z,99522.63
2023-01-19T17:00:18.235Z,99524.64
2023-01-19T17:05:20.947Z,99528.30
2023-01-19T17:10:23.658Z,99522.25
2023-01-19T17:15:26.461Z,99526.20
2023-01-19T17:20:29.367Z,99524.34
2023-01-19T17:25:32.066Z,99523.92
2023-01-19T17:30:35.116Z,99525.48
2023-01-19T17:35:37.868Z,99526.02
2023-01-19T17:40:41.086Z,99528.40
2023-01-19T17:45:43.830Z,99525.35
2023-01-19T17:50:46.510Z,99528.93
2023-01-19T17:55:49.164Z,99527.39
2023-01-19T18:00:52.069Z,99521.81
2023-01-19T18:05:55.960Z,99522.09
2023-01-19T18:11:00.775Z,99520.36
2023-01-19T18:16:09.468Z,99511.68
2023-01-19T18:21:14.698Z,99506.80
2023-01-19T18:26:22.228Z,99511.02
2023-01-19T18:31:26.613Z,99510.25
2023-01-19T18:36:32.072Z,99510.92
2023-01-19T18:41:40.501Z,99512.77
2023-01-19T18:46:43.218Z,99504.68
2023-01-19T18:51:46.053Z,99510.83
2023-01-19T18:56:50.596Z,99516.14
2023-01-19T19:01:53.900Z,99517.00
2023-01-19T19:06:56.867Z,99511.31
2023-01-19T19:11:59.558Z,99511.49
2023-01-19T19:17:02.232Z,99517.45
2023-01-19T19:22:05.056Z,99523.25
2023-01-19T19:27:14.008Z,99523.34
2023-01-19T19:32:20.469Z,99523.72
2023-01-19T19:37:23.598Z,99521.11
2023-01-19T19:42:26.322Z,99514.46
2023-01-19T19:47:30.495Z,99520.48
2023-01-19T19:52:38.453Z,99523.72
2023-01-19T19:57:41.267Z,99531.50
2023-01-19T20:02:44.743Z,99540.36
2023-01-19T20:07:48.416Z,99537.31
2023-01-19T20:12:51.404Z,99537.39
2023-01-19T20:17:54.201Z,99537.58
2023-01-19T20:22:59.386Z,99532.48
2023-01-19T20:28:02.172Z,99533.45
2023-01-19T20:33:04.839Z,99538.65
2023-01-19T20:38:07.603Z,99541.08
2023-01-19T20:43:10.357Z,99543.39
2023-01-19T20:48:13.099Z,99541.70
2023-01-19T20:53:16.583Z,99547.42
2023-01-19T20:58:19.483Z,99544.66
2023-01-19T21:03:22.158Z,99546.76
2023-01-19T21:08:24.879Z,99552.20
2023-01-19T21:13:27.569Z,99568.73
2023-01-19T21:18:30.374Z,99567.08
2023-01-19T21:23:33.074Z,99562.98
2023-01-19T21:28:36.497Z,99565.84
2023-01-19T21:33:40.306Z,99573.96
2023-01-19T21:38:43.050Z,99574.73
2023-01-19T21:43:46.517Z,99584.16
2023-01-19T21:48:49.433Z,99587.80
2023-01-19T21:53:52.565Z,99600.41
2023-01-19T21:58:56.651Z,99601.46
2023-01-19T22:03:59.691Z,99603.77
2023-01-19T22:09:02.390Z,99601.40
2023-01-19T22:14:05.185Z,99598.88
2023-01-19T22:19:12.964Z,99603.84
2023-01-19T22:24:15.607Z,99612.18
2023-01-19T22:29:18.340Z,99619.48
2023-01-19T22:34:21.114Z,99615.30
2023-01-19T22:39:23.783Z,99613.71
2023-01-19T22:44:26.494Z,99618.98
2023-01-19T22:49:29.285Z,99617.85
2023-01-19T22:54:33.532Z,99613.24
2023-01-19T22:59:36.237Z,99616.15
2023-01-19T23:04:39.656Z,99631.15
2023-01-19T23:09:42.452Z,99639.69
2023-01-19T23:14:45.145Z,99647.95
2023-01-19T23:19:47.847Z,99657.18
2023-01-19T23:24:50.527Z,99659.61
2023-01-19T23:29:53.242Z,99662.79
2023-01-19T23:34:55.942Z,99669.48
2023-01-19T23:39:58.640Z,99664.86
2023-01-19T23:45:01.332Z,99672.41
2023-01-19T23:50:05.238Z,99683.66
2023-01-19T23:55:09.055Z,99682.76
